Time;durP1;ratioP1;P1;durP2;ratioP2;P2;SDS_P1;SDS_P2;PMS_P1;PMS_P2;Temp;Humidity;BMP_temperature;BMP_pressure;BME280_temperature;BME280_humidity;BME280_pressure;Samples;Min_cycle;Max_cycle;Signal;HPM_P1;HPM_P2
2022/03/15 00:01:37;;;;;;;27.67;16.73;;;;;;;7.10;52.44;101649.38;5047652;28;20030;-75
2022/03/15 00:04:17;;;;;;;31.25;17.30;;;;;;;6.98;53.40;101652.75;5037884;28;20100;-75
2022/03/15 00:06:42;;;;;;;26.67;16.83;;;;;;;6.83;53.05;101641.56;5035446;28;20458;-74
2022/03/15 00:09:07;;;;;;;25.73;16.23;;;;;;;6.74;53.21;101646.13;5017655;28;20115;-75
2022/03/15 00:11:34;;;;;;;30.60;17.35;;;;;;;6.65;53.58;101648.63;5033922;28;20065;-76
2022/03/15 00:14:02;;;;;;;31.55;16.73;;;;;;;6.62;53.59;101658.75;5034206;28;20021;-75
2022/03/15 00:16:28;;;;;;;31.50;18.00;;;;;;;6.65;54.01;101657.94;5034084;28;20041;-76
2022/03/15 00:18:53;;;;;;;31.70;17.35;;;;;;;6.70;53.96;101649.00;5035006;28;20064;-75
2022/03/15 00:21:20;;;;;;;32.42;17.45;;;;;;;6.73;53.68;101636.81;5033425;28;20462;-76
2022/03/15 00:23:45;;;;;;;33.63;17.25;;;;;;;6.86;54.13;101654.88;5033777;28;20037;-76
2022/03/15 00:26:12;;;;;;;28.77;17.58;;;;;;;6.93;53.85;101648.34;5035234;28;20393;-76
2022/03/15 00:28:38;;;;;;;33.83;18.05;;;;;;;6.95;54.15;101648.75;5017338;28;20025;-76
2022/03/15 00:31:05;;;;;;;33.25;17.55;;;;;;;7.05;54.17;101656.31;5033939;28;20083;-76
2022/03/15 00:33:31;;;;;;;30.38;18.10;;;;;;;7.08;54.38;101646.97;5035150;28;20109;-76
2022/03/15 00:35:59;;;;;;;32.05;17.30;;;;;;;7.06;54.39;101657.91;5034012;28;20055;-76
2022/03/15 00:38:26;;;;;;;31.75;17.70;;;;;;;7.05;54.35;101669.66;5033695;28;20116;-77
2022/03/15 00:40:53;;;;;;;25.95;15.57;;;;;;;7.09;54.89;101665.56;5000960;28;20061;-76
2022/03/15 00:43:19;;;;;;;25.95;15.45;;;;;;;7.07;54.92;101668.00;5038302;28;20486;-75
2022/03/15 00:45:45;;;;;;;28.98;16.08;;;;;;;7.13;55.08;101662.69;5036781;28;20078;-75
2022/03/15 00:48:13;;;;;;;34.58;17.98;;;;;;;7.24;55.59;101666.22;5017848;28;20067;-75
2022/03/15 00:50:41;;;;;;;25.10;15.60;;;;;;;7.26;55.75;101666.56;5034578;28;20123;-75
2022/03/15 00:53:09;;;;;;;22.35;14.45;;;;;;;7.36;55.75;101668.47;5035081;28;20026;-75
2022/03/15 00:55:39;;;;;;;27.50;13.75;;;;;;;7.41;55.86;101676.50;5054539;28;20040;-75
2022/03/15 00:58:05;;;;;;;26.10;15.32;;;;;;;7.49;55.54;101668.75;5019968;28;20025;-75
2022/03/15 01:00:31;;;;;;;26.60;14.30;;;;;;;7.52;55.67;101670.72;5035676;28;20029;-74
2022/03/15 01:03:01;;;;;;;22.38;14.20;;;;;;;7.51;55.49;101661.41;5035427;28;20408;-74
2022/03/15 01:05:26;;;;;;;20.10;13.05;;;;;;;7.64;55.55;101662.47;5035738;28;20031;-74
2022/03/15 01:07:55;;;;;;;23.98;12.68;;;;;;;7.67;55.89;101666.47;5035507;28;20397;-74
2022/03/15 01:10:21;;;;;;;23.40;13.88;;;;;;;7.68;55.98;101668.88;5053836;28;20051;-74
2022/03/15 01:12:48;;;;;;;23.05;12.15;;;;;;;7.71;55.79;101662.34;5035963;28;20100;-75
2022/03/15 01:15:13;;;;;;;22.45;12.55;;;;;;;7.72;56.14;101663.97;5035652;28;20040;-74
2022/03/15 01:17:40;;;;;;;19.70;11.73;;;;;;;7.78;56.25;101673.59;5054209;28;20029;-74
2022/03/15 01:20:08;;;;;;;21.33;12.50;;;;;;;7.82;55.74;101665.03;5036416;28;20053;-75
2022/03/15 01:22:33;;;;;;;18.33;12.38;;;;;;;7.88;55.72;101669.00;5052936;28;20041;-74
2022/03/15 01:25:00;;;;;;;22.60;13.45;;;;;;;7.90;55.94;101668.56;5036154;28;20367;-75
2022/03/15 01:27:25;;;;;;;22.20;12.10;;;;;;;7.91;55.66;101668.16;5019681;28;20488;-75
2022/03/15 01:29:51;;;;;;;21.02;13.55;;;;;;;7.96;55.61;101669.69;5019575;28;20040;-75
2022/03/15 01:32:19;;;;;;;22.52;13.38;;;;;;;7.98;55.39;101668.06;5053591;28;20385;-75
2022/03/15 01:34:59;;;;;;;21.15;12.48;;;;;;;8.11;55.34;101673.94;5036415;28;20043;-75
2022/03/15 01:37:24;;;;;;;25.83;13.52;;;;;;;8.07;54.91;101662.66;5053777;28;20504;-74
2022/03/15 01:39:50;;;;;;;23.92;13.57;;;;;;;7.99;55.22;101663.19;5033943;28;20068;-73
2022/03/15 01:42:16;;;;;;;25.70;14.75;;;;;;;7.88;55.26;101652.00;5053487;28;20021;-74
2022/03/15 01:44:46;;;;;;;24.60;15.30;;;;;;;7.87;55.39;101660.91;5034780;28;20040;-75
2022/03/15 01:47:12;;;;;;;28.13;15.23;;;;;;;7.80;55.27;101651.28;5036058;28;20044;-75
2022/03/15 01:49:38;;;;;;;25.80;14.73;;;;;;;7.78;55.20;101652.94;5035842;28;20029;-75
2022/03/15 01:52:05;;;;;;;25.73;14.00;;;;;;;7.80;55.19;101645.59;5053432;28;20070;-74
2022/03/15 01:54:33;;;;;;;27.35;14.18;;;;;;;7.82;55.26;101648.03;5053222;28;20049;-75
2022/03/15 01:56:58;;;;;;;22.85;14.05;;;;;;;7.84;54.95;101647.59;5053264;28;20036;-74
2022/03/15 01:59:26;;;;;;;23.67;14.05;;;;;;;7.79;54.71;101654.56;5053243;28;20029;-75
2022/03/15 02:01:52;;;;;;;24.73;14.13;;;;;;;7.77;55.32;101657.00;5035050;28;20032;-74
2022/03/15 02:04:18;;;;;;;21.40;13.57;;;;;;;7.86;55.55;101659.31;5018722;28;20564;-75
2022/03/15 02:06:50;;;;;;;23.15;13.68;;;;;;;7.85;54.82;101654.84;5053512;28;20028;-74
2022/03/15 02:09:16;;;;;;;;;;;;;;;7.86;55.79;101654.44;5053558;28;20075;-75
2022/03/15 02:11:44;;;;;;;23.45;12.93;;;;;;;7.86;54.75;101647.97;5052988;28;20353;-76
2022/03/15 02:14:11;;;;;;;20.52;11.20;;;;;;;7.85;54.68;101650.00;5035333;28;20029;-75
2022/03/15 02:16:36;;;;;;;26.27;14.30;;;;;;;7.85;54.50;101644.31;5032319;28;20033;-73
2022/03/15 02:19:04;;;;;;;37.17;15.68;;;;;;;7.78;54.49;101638.75;5018830;28;20480;-75
2022/03/15 02:21:30;;;;;;;29.83;16.40;;;;;;;7.71;55.07;101645.34;5035351;28;20448;-74
2022/03/15 02:23:57;;;;;;;29.90;15.32;;;;;;;7.55;55.17;101659.31;5035227;28;20087;-75
2022/03/15 02:26:22;;;;;;;28.75;16.58;;;;;;;7.45;55.57;101660.25;5002284;28;20043;-74
2022/03/15 02:28:48;;;;;;;24.77;15.50;;;;;;;7.38;55.47;101652.66;5035498;28;20025;-74
2022/03/15 02:31:27;;;;;;;25.05;14.52;;;;;;;7.26;56.13;101653.22;5018524;28;20389;-75
2022/03/15 02:33:54;;;;;;;25.52;14.80;;;;;;;7.13;56.14;101654.19;5053117;28;20025;-75
2022/03/15 02:36:21;;;;;;;33.40;14.73;;;;;;;7.07;56.28;101661.53;5035539;28;20154;-75
2022/03/15 02:38:48;;;;;;;27.10;14.50;;;;;;;7.07;56.21;101656.69;5018819;28;20366;-77
2022/03/15 02:41:14;;;;;;;26.23;13.15;;;;;;;6.99;56.67;101643.03;5002015;28;20041;-76
2022/03/15 02:43:43;;;;;;;23.67;13.95;;;;;;;6.92;56.70;101641.88;5018835;28;20033;-75
2022/03/15 02:46:09;;;;;;;26.92;14.43;;;;;;;6.93;56.96;101637.81;5018816;28;20087;-75
2022/03/15 02:48:35;;;;;;;24.65;13.63;;;;;;;6.97;57.42;101649.09;5018888;28;20036;-75
2022/03/15 02:51:04;;;;;;;22.98;13.13;;;;;;;6.99;57.86;101637.34;5018575;28;20063;-73
2022/03/15 02:53:32;;;;;;;26.30;13.82;;;;;;;6.78;57.63;101642.03;4999230;28;20053;-75
2022/03/15 02:55:59;;;;;;;25.00;13.40;;;;;;;6.56;58.20;101640.63;5032764;28;20461;-74
2022/03/15 02:58:27;;;;;;;27.50;12.88;;;;;;;6.40;58.72;101641.19;5015190;28;20112;-75
2022/03/15 03:00:53;;;;;;;21.38;11.30;;;;;;;6.29;58.75;101648.94;5031894;28;20026;-74
2022/03/15 03:03:18;;;;;;;25.80;12.85;;;;;;;6.20;59.26;101645.78;5015109;28;20055;-75
2022/03/15 03:05:46;;;;;;;27.65;12.25;;;;;;;6.08;59.69;101637.78;5031969;28;20045;-75
2022/03/15 03:08:16;;;;;;;27.13;12.30;;;;;;;5.98;59.84;101642.31;5031509;28;20180;-74
2022/03/15 03:10:41;;;;;;;20.75;11.30;;;;;;;5.87;60.33;101633.09;5031910;28;20029;-75
2022/03/15 03:13:07;;;;;;;21.20;10.45;;;;;;;5.75;60.14;101647.69;5015090;28;20099;-76
2022/03/15 03:15:34;;;;;;;20.23;10.85;;;;;;;5.62;61.25;101652.22;5035206;28;20075;-74
2022/03/15 03:18:07;;;;;;;22.70;11.90;;;;;;;5.46;62.00;101646.25;5017820;28;20063;-76
2022/03/15 03:20:35;;;;;;;23.33;10.10;;;;;;;5.34;61.28;101655.16;5034279;28;20441;-76
2022/03/15 03:23:09;;;;;;;17.65;10.35;;;;;;;5.25;62.72;101663.28;5034518;28;20084;-76
2022/03/15 03:25:36;;;;;;;25.45;11.25;;;;;;;5.18;61.96;101664.91;5017671;28;20056;-74
2022/03/15 03:28:05;;;;;;;19.35;10.13;;;;;;;5.15;62.42;101679.84;5034125;28;20458;-75
2022/03/15 03:30:36;;;;;;;24.00;11.15;;;;;;;5.15;63.10;101667.75;5035878;28;20049;-75
2022/03/15 03:33:02;;;;;;;17.13;9.48;;;;;;;5.25;62.45;101675.38;5036119;28;20474;-75
2022/03/15 03:35:43;;;;;;;23.30;9.57;;;;;;;5.33;62.99;101679.00;5017811;28;20052;-75
2022/03/15 03:38:10;;;;;;;20.52;10.02;;;;;;;5.39;62.16;101674.50;5034885;28;20103;-75
2022/03/15 03:40:35;;;;;;;18.58;8.85;;;;;;;5.47;63.22;101670.47;5018587;28;20484;-75
2022/03/15 03:43:01;;;;;;;18.08;10.30;;;;;;;5.66;62.54;101669.97;5034946;28;20120;-75
2022/03/15 03:45:26;;;;;;;16.08;8.75;;;;;;;5.68;62.71;101675.97;5018304;28;20029;-75
2022/03/15 03:47:53;;;;;;;15.93;9.27;;;;;;;5.71;62.61;101678.00;5001807;28;20033;-76
2022/03/15 03:50:20;;;;;;;15.68;9.23;;;;;;;5.81;62.16;101677.16;5034708;28;20151;-74
2022/03/15 03:52:47;;;;;;;14.57;8.85;;;;;;;5.90;61.96;101683.19;5034479;28;20025;-75
2022/03/15 03:55:12;;;;;;;16.95;10.45;;;;;;;6.01;61.75;101683.13;5017755;28;20061;-75
2022/03/15 03:57:46;;;;;;;14.50;9.35;;;;;;;6.11;62.48;101675.78;5018128;28;20040;-75
2022/03/15 04:00:13;;;;;;;15.38;9.32;;;;;;;6.15;61.74;101671.69;5035525;28;20033;-75
2022/03/15 04:02:39;;;;;;;15.68;9.07;;;;;;;6.17;61.71;101672.06;5035893;28;20052;-76
2022/03/15 04:05:06;;;;;;;19.05;9.93;;;;;;;6.14;62.04;101660.78;5035692;28;20367;-75
2022/03/15 04:07:34;;;;;;;14.50;8.93;;;;;;;6.22;62.50;101671.63;5001517;28;20052;-75
2022/03/15 04:10:09;;;;;;;12.57;8.35;;;;;;;6.28;63.26;101680.47;5035744;28;20030;-75
2022/03/15 04:12:36;;;;;;;14.05;8.80;;;;;;;6.35;61.93;101678.41;5033984;28;20072;-74
2022/03/15 04:15:03;;;;;;;13.95;8.15;;;;;;;6.45;62.09;101680.34;5034459;28;20040;-73
2022/03/15 04:17:43;;;;;;;17.92;9.25;;;;;;;6.52;62.88;101679.47;5033889;28;20136;-75
2022/03/15 04:20:10;;;;;;;14.13;8.57;;;;;;;6.49;62.10;101666.97;5034305;28;20152;-75
2022/03/15 04:22:35;;;;;;;16.40;8.25;;;;;;;6.60;62.72;101668.91;5017974;28;20045;-74
2022/03/15 04:25:02;;;;;;;14.13;7.95;;;;;;;6.52;62.41;101668.16;5034821;28;20022;-74
2022/03/15 04:27:27;;;;;;;14.50;8.70;;;;;;;6.53;62.47;101666.13;5034357;28;20462;-74
2022/03/15 04:29:53;;;;;;;10.45;8.02;;;;;;;6.53;62.70;101661.28;5001828;28;20076;-75
2022/03/15 04:32:20;;;;;;;14.23;8.32;;;;;;;6.56;62.74;101671.78;5034217;28;20038;-74
2022/03/15 04:34:46;;;;;;;16.60;8.93;;;;;;;6.62;62.59;101666.44;5035909;28;20080;-75
2022/03/15 04:37:14;;;;;;;16.45;9.50;;;;;;;6.58;62.59;101671.34;5036845;28;20037;-76
2022/03/15 04:39:40;;;;;;;17.17;9.43;;;;;;;6.71;62.58;101678.13;5033893;28;20382;-75
2022/03/15 04:42:07;;;;;;;15.77;9.25;;;;;;;6.77;62.84;101673.59;5018098;28;20030;-75
2022/03/15 04:44:35;;;;;;;16.20;9.23;;;;;;;6.86;62.65;101666.19;5034024;28;20033;-74
2022/03/15 04:47:00;;;;;;;19.75;9.82;;;;;;;6.78;63.01;101664.69;5034833;28;20029;-75
2022/03/15 04:49:26;;;;;;;18.23;8.93;;;;;;;6.81;62.85;101677.19;5016793;28;20033;-75
2022/03/15 04:51:51;;;;;;;17.55;9.20;;;;;;;6.83;62.54;101677.56;5033448;28;20037;-75
2022/03/15 04:54:17;;;;;;;12.70;9.13;;;;;;;6.86;62.37;101676.72;4994942;28;20056;-75
2022/03/15 04:56:44;;;;;;;22.83;8.57;;;;;;;6.93;62.95;101682.31;5032427;28;20102;-75
2022/03/15 04:59:10;;;;;;;11.68;8.13;;;;;;;7.00;62.58;101689.97;5033276;28;20022;-75
2022/03/15 05:01:36;;;;;;;14.32;7.95;;;;;;;7.04;62.06;101699.22;5034571;28;20040;-74
2022/03/15 05:04:03;;;;;;;13.95;8.45;;;;;;;6.93;62.67;101693.66;5034443;28;20044;-75
2022/03/15 05:06:31;;;;;;;17.63;8.93;;;;;;;6.93;62.87;101690.81;5033175;28;20108;-75
2022/03/15 05:08:57;;;;;;;14.75;9.52;;;;;;;6.96;62.45;101700.53;5034218;28;20400;-74
2022/03/15 05:11:22;;;;;;;19.63;9.23;;;;;;;6.90;62.40;101686.00;5033180;28;20064;-75
2022/03/15 05:13:49;;;;;;;15.13;8.75;;;;;;;6.92;62.26;101692.03;5034285;28;20026;-74
2022/03/15 05:16:20;;;;;;;16.17;9.02;;;;;;;6.88;62.27;101682.78;5035935;28;20030;-74
2022/03/15 05:18:50;;;;;;;15.32;8.23;;;;;;;6.94;62.68;101695.28;5035072;28;20444;-75
2022/03/15 05:21:18;;;;;;;12.15;8.35;;;;;;;6.94;62.76;101696.06;5017702;28;20037;-76
2022/03/15 05:23:47;;;;;;;14.32;8.35;;;;;;;6.83;63.07;101686.88;5033004;28;20025;-75
2022/03/15 05:26:15;;;;;;;16.45;8.90;;;;;;;6.96;62.94;101698.47;5034478;28;20056;-75
2022/03/15 05:28:42;;;;;;;14.43;8.90;;;;;;;6.99;62.85;101691.97;5032760;28;20419;-75
2022/03/15 05:31:23;;;;;;;13.02;8.52;;;;;;;7.05;62.93;101689.50;5032760;28;20400;-74
2022/03/15 05:33:50;;;;;;;17.17;9.88;;;;;;;6.98;63.01;101684.69;5034401;28;20079;-75
2022/03/15 05:36:19;;;;;;;20.35;9.70;;;;;;;7.01;62.80;101681.00;5032475;28;20034;-75
2022/03/15 05:38:45;;;;;;;13.45;9.13;;;;;;;7.04;62.32;101688.69;5033516;28;20108;-75
2022/03/15 05:41:14;;;;;;;18.13;9.80;;;;;;;7.11;62.58;101693.47;5034126;28;20108;-76
2022/03/15 05:43:40;;;;;;;18.42;9.05;;;;;;;7.24;62.67;101688.88;5033980;28;20037;-74
2022/03/15 05:46:09;;;;;;;18.33;9.68;;;;;;;7.24;62.00;101674.72;5033919;28;20490;-77
2022/03/15 05:48:38;;;;;;;17.70;8.98;;;;;;;7.26;62.13;101675.88;5016977;28;20038;-77
2022/03/15 05:51:04;;;;;;;17.08;9.38;;;;;;;7.32;62.04;101673.38;5034476;28;20057;-77
2022/03/15 05:53:30;;;;;;;16.10;9.45;;;;;;;7.52;61.63;101668.69;5034416;28;20473;-74
2022/03/15 05:56:04;;;;;;;20.80;10.93;;;;;;;7.51;61.39;101660.59;5034290;28;20478;-75
2022/03/15 05:58:31;;;;;;;17.70;9.95;;;;;;;7.52;61.32;101670.72;5033775;28;20025;-75
2022/03/15 06:00:59;;;;;;;17.27;9.48;;;;;;;7.46;61.60;101672.41;5035007;28;20083;-74
2022/03/15 06:03:26;;;;;;;16.23;9.48;;;;;;;7.48;61.02;101667.13;5034885;28;20021;-74
2022/03/15 06:05:52;;;;;;;26.45;11.18;;;;;;;7.54;61.24;101682.44;5033913;28;20032;-75
2022/03/15 06:08:20;;;;;;;18.00;9.20;;;;;;;7.65;61.19;101677.41;5033057;28;20029;-75
2022/03/15 06:10:47;;;;;;;18.27;10.80;;;;;;;7.71;60.39;101687.06;5017164;28;20032;-71
2022/03/15 06:13:17;;;;;;;21.13;10.52;;;;;;;7.93;60.48;101679.06;5036769;28;20030;-80
2022/03/15 06:15:45;;;;;;;16.00;9.52;;;;;;;8.09;59.90;101679.25;5034049;28;20079;-72
2022/03/15 06:18:10;;;;;;;23.50;10.45;;;;;;;8.25;58.83;101679.38;5015049;28;20025;-73
2022/03/15 06:20:39;;;;;;;18.33;10.30;;;;;;;8.32;59.23;101681.34;5033754;28;20028;-72
2022/03/15 06:23:08;;;;;;;17.65;10.30;;;;;;;8.39;59.01;101678.38;5032427;28;20022;-73
2022/03/15 06:25:34;;;;;;;25.23;12.32;;;;;;;8.46;58.82;101676.25;5019695;28;20033;-71
2022/03/15 06:28:03;;;;;;;28.45;15.75;;;;;;;8.53;58.46;101670.44;5031253;28;20041;-72
2022/03/15 06:30:31;;;;;;;25.63;13.15;;;;;;;8.77;58.58;101676.94;5031487;28;20029;-72
2022/03/15 06:32:56;;;;;;;27.95;12.25;;;;;;;9.22;56.97;101665.94;5032434;28;20026;-71
2022/03/15 06:35:29;;;;;;;20.02;11.23;;;;;;;10.27;55.64;101664.81;5031710;28;20029;-71
2022/03/15 06:37:55;;;;;;;21.70;10.43;;;;;;;12.09;51.03;101656.47;5030152;28;20026;-72
2022/03/15 06:40:24;;;;;;;25.75;11.02;;;;;;;13.89;47.79;101645.56;5031999;28;20078;-72
2022/03/15 06:42:58;;;;;;;20.48;10.00;;;;;;;16.06;42.24;101629.03;5032087;28;20029;-70
2022/03/15 06:45:24;;;;;;;23.27;10.88;;;;;;;18.05;38.15;101622.22;5031964;28;20474;-69
2022/03/15 06:47:51;;;;;;;19.33;10.52;;;;;;;19.85;34.81;101624.81;5032327;28;20032;-68
2022/03/15 06:50:16;;;;;;;19.67;11.27;;;;;;;20.39;32.77;101630.81;5037214;28;20025;-69
2022/03/15 06:52:51;;;;;;;22.60;11.65;;;;;;;19.63;32.87;101630.41;5035333;28;20036;-67
2022/03/15 06:55:18;;;;;;;21.63;10.80;;;;;;;20.88;32.20;101633.19;5018317;28;20084;-69
2022/03/15 06:57:45;;;;;;;21.65;11.25;;;;;;;22.22;29.61;101637.25;5036772;28;20033;-68
2022/03/15 07:00:13;;;;;;;27.05;11.70;;;;;;;23.59;27.03;101632.84;5036790;28;20220;-69
2022/03/15 07:02:39;;;;;;;21.13;10.45;;;;;;;24.68;26.25;101639.63;5035391;28;20037;-68
2022/03/15 07:05:06;;;;;;;27.67;12.23;;;;;;;25.63;24.73;101636.34;5036817;28;20351;-67
2022/03/15 07:07:37;;;;;;;20.73;11.05;;;;;;;26.18;23.82;101620.88;5036293;28;20032;-69
2022/03/15 07:10:09;;;;;;;;;;;;;;;26.61;21.93;101643.22;5035735;28;20040;-73
2022/03/15 07:12:36;;;;;;;26.80;11.60;;;;;;;26.69;23.43;101649.22;5035041;28;19921;-74
2022/03/15 07:15:03;;;;;;;27.77;10.52;;;;;;;26.82;22.20;101649.22;5036542;28;20029;-74
2022/03/15 07:17:30;;;;;;;23.75;11.68;;;;;;;27.13;20.94;101647.56;5035480;28;20025;-80
2022/03/15 07:19:57;;;;;;;19.45;11.25;;;;;;;27.49;20.92;101655.28;5036503;28;20036;-78
2022/03/15 07:22:24;;;;;;;23.92;11.57;;;;;;;27.82;20.24;101647.09;5033212;28;20030;-75
2022/03/15 07:24:53;;;;;;;18.85;11.88;;;;;;;28.04;19.65;101648.66;5033496;28;20068;-76
2022/03/15 07:27:21;;;;;;;19.95;11.05;;;;;;;28.02;19.76;101645.53;5022315;28;20025;-73
2022/03/15 07:29:48;;;;;;;17.90;11.13;;;;;;;28.05;20.18;101645.19;5033947;28;20021;-73
2022/03/15 07:32:14;;;;;;;33.78;20.30;;;;;;;28.00;19.67;101646.09;5035117;28;20441;-74
2022/03/15 07:34:40;;;;;;;21.40;11.50;;;;;;;27.98;19.51;101645.09;5035715;28;20030;-73
2022/03/15 07:37:05;;;;;;;17.13;9.32;;;;;;;27.85;20.12;101646.72;5036046;28;20028;-74
2022/03/15 07:39:35;;;;;;;16.95;9.88;;;;;;;27.23;20.31;101651.59;5035960;28;20040;-81
2022/03/15 07:42:03;;;;;;;15.55;9.68;;;;;;;27.39;20.55;101651.22;5035296;28;20079;-79
2022/03/15 07:44:32;;;;;;;17.70;9.98;;;;;;;26.97;20.56;101641.47;5036360;28;20408;-77
2022/03/15 07:46:59;;;;;;;16.50;9.65;;;;;;;26.77;21.08;101647.97;5033620;28;20044;-71
2022/03/15 07:49:25;;;;;;;18.20;11.45;;;;;;;26.30;21.21;101644.84;5033891;28;20037;-72
2022/03/15 07:51:52;;;;;;;16.98;10.68;;;;;;;26.09;21.78;101649.72;5035770;28;20041;-70
2022/03/15 07:54:18;;;;;;;18.65;10.45;;;;;;;26.76;21.44;101645.59;5030064;28;20053;-70
2022/03/15 07:56:47;;;;;;;16.65;9.98;;;;;;;27.06;21.09;101637.31;5032322;28;20103;-75
2022/03/15 07:59:17;;;;;;;21.63;9.93;;;;;;;26.46;21.44;101635.00;5027250;28;20029;-76
2022/03/15 08:01:43;;;;;;;16.23;10.35;;;;;;;24.72;23.48;101635.06;5031135;28;20040;-75
2022/03/15 08:04:08;;;;;;;14.25;9.95;;;;;;;23.30;25.36;101637.22;5019916;28;20088;-74
2022/03/15 08:06:38;;;;;;;20.17;11.38;;;;;;;22.67;26.04;101640.88;5015604;28;20038;-79
2022/03/15 08:09:05;;;;;;;19.63;10.65;;;;;;;22.39;26.78;101640.94;5014848;28;20100;-78
2022/03/15 08:11:32;;;;;;;21.30;11.07;;;;;;;21.79;27.93;101645.38;5015171;28;20025;-81
2022/03/15 08:13:58;;;;;;;20.92;11.38;;;;;;;21.90;28.07;101648.31;5014808;28;20494;-79
2022/03/15 08:16:24;;;;;;;17.85;10.00;;;;;;;22.18;27.82;101639.63;5015488;28;20030;-76
2022/03/15 08:18:51;;;;;;;21.45;11.35;;;;;;;22.60;27.25;101635.59;5015469;28;20117;-75
2022/03/15 08:21:23;;;;;;;23.70;11.27;;;;;;;22.83;26.47;101616.03;5016060;28;20018;-77
2022/03/15 08:23:49;;;;;;;19.42;11.00;;;;;;;23.05;26.61;101613.03;5014067;28;20014;-79
2022/03/15 08:26:15;;;;;;;20.80;11.68;;;;;;;23.14;26.40;101626.47;5014794;28;20032;-78
2022/03/15 08:28:41;;;;;;;17.55;11.20;;;;;;;22.99;26.89;101618.06;5014227;28;20517;-74
2022/03/15 08:31:13;;;;;;;21.50;11.80;;;;;;;23.20;26.75;101628.03;4996089;28;20431;-73
2022/03/15 08:33:38;;;;;;;16.48;10.93;;;;;;;23.19;26.63;101628.56;5012735;28;20061;-73
2022/03/15 08:36:08;;;;;;;21.80;11.95;;;;;;;23.28;26.53;101624.56;5012470;28;20053;-72
2022/03/15 08:38:34;;;;;;;17.42;11.77;;;;;;;23.25;26.94;101615.59;5015112;28;20026;-73
2022/03/15 08:41:03;;;;;;;18.13;11.25;;;;;;;23.30;26.80;101625.59;5013762;28;20028;-74
2022/03/15 08:43:31;;;;;;;18.30;9.60;;;;;;;23.14;26.86;101603.19;4997366;28;20056;-76
2022/03/15 08:45:56;;;;;;;17.80;11.02;;;;;;;23.03;27.47;101600.38;5015329;28;20030;-76
2022/03/15 08:48:24;;;;;;;18.15;11.10;;;;;;;23.05;27.53;101594.78;5014034;28;20108;-76
2022/03/15 08:50:49;;;;;;;12.85;9.73;;;;;;;23.18;28.16;101592.09;5015346;28;20033;-76
2022/03/15 08:53:16;;;;;;;23.05;10.88;;;;;;;23.18;28.05;101578.38;5019172;28;20027;-76
2022/03/15 08:56:02;;;;;;;26.40;10.68;;;;;;;23.11;27.70;101593.44;5036779;28;20386;-77
2022/03/15 08:58:28;;;;;;;19.48;10.50;;;;;;;23.06;28.14;101588.47;5016306;28;20037;-78
2022/03/15 09:00:55;;;;;;;16.08;10.38;;;;;;;22.86;28.54;101588.81;5000951;28;20115;-79
2022/03/15 09:03:22;;;;;;;18.33;11.18;;;;;;;22.65;28.75;101584.63;5017200;28;20029;-76
2022/03/15 09:05:48;;;;;;;15.75;10.57;;;;;;;22.49;29.24;101582.56;5034647;28;20425;-73
2022/03/15 09:08:14;;;;;;;18.55;11.52;;;;;;;22.10;30.06;101597.94;5034999;28;20025;-77
2022/03/15 09:10:44;;;;;;;17.58;10.60;;;;;;;21.76;29.80;101584.72;5028688;28;20024;-77
2022/03/15 09:13:10;;;;;;;19.42;11.63;;;;;;;21.65;30.54;101593.41;5053458;28;20088;-75
2022/03/15 09:15:36;;;;;;;19.55;12.25;;;;;;;21.48;30.33;101591.28;5020709;28;20041;-73
2022/03/15 09:18:02;;;;;;;17.83;11.93;;;;;;;21.21;31.14;101594.91;5037819;28;20392;-81
2022/03/15 09:20:29;;;;;;;24.60;12.30;;;;;;;21.03;31.67;101595.34;5037594;28;20454;-77
2022/03/15 09:22:55;;;;;;;20.02;11.88;;;;;;;20.91;32.16;101585.81;5040422;28;20431;-77
2022/03/15 09:25:23;;;;;;;19.35;12.00;;;;;;;20.82;31.87;101588.16;5035173;28;20464;-77
2022/03/15 09:27:50;;;;;;;19.52;11.45;;;;;;;20.76;31.52;101582.34;5036681;28;20084;-75
2022/03/15 09:30:17;;;;;;;18.25;12.02;;;;;;;20.74;31.76;101579.16;5060241;28;20036;-78
2022/03/15 09:32:43;;;;;;;22.20;13.07;;;;;;;20.77;32.29;101574.44;5021081;28;20397;-76
2022/03/15 09:35:09;;;;;;;17.02;10.75;;;;;;;20.86;32.39;101577.13;5036925;28;20031;-77
2022/03/15 09:37:35;;;;;;;22.60;13.20;;;;;;;21.01;31.99;101563.22;5039126;28;20078;-73
2022/03/15 09:40:03;;;;;;;21.05;13.35;;;;;;;20.94;32.23;101566.59;5020579;28;20037;-78
2022/03/15 09:42:29;;;;;;;21.73;13.00;;;;;;;20.88;32.32;101569.47;5020504;28;20416;-78
2022/03/15 09:44:57;;;;;;;19.73;13.60;;;;;;;20.85;32.38;101563.94;5039261;28;20021;-74
2022/03/15 09:47:24;;;;;;;23.17;13.73;;;;;;;20.98;32.45;101562.13;5055786;28;20033;-76
2022/03/15 09:49:53;;;;;;;18.55;12.05;;;;;;;20.92;32.05;101558.41;5037761;28;20029;-79
2022/03/15 09:52:27;;;;;;;22.42;13.88;;;;;;;20.96;31.66;101549.50;5054946;28;20036;-76
2022/03/15 09:54:55;;;;;;;21.20;13.32;;;;;;;20.71;31.85;101554.13;5052769;28;20049;-76
2022/03/15 09:57:20;;;;;;;23.13;13.40;;;;;;;20.67;32.19;101553.59;5054128;28;20021;-80
2022/03/15 09:59:50;;;;;;;21.83;13.65;;;;;;;20.67;31.87;101548.56;5035948;28;20051;-79
2022/03/15 10:02:17;;;;;;;27.98;14.50;;;;;;;20.87;32.69;101547.59;5035462;28;20037;-74
2022/03/15 10:04:42;;;;;;;24.65;13.73;;;;;;;20.66;31.79;101546.22;5035396;28;20477;-75
2022/03/15 10:07:09;;;;;;;24.42;12.93;;;;;;;20.68;33.14;101537.78;5053047;28;20108;-72
2022/03/15 10:09:35;;;;;;;19.83;12.30;;;;;;;20.49;31.90;101531.66;5034755;28;20544;-73
2022/03/15 10:12:02;;;;;;;18.65;12.05;;;;;;;20.35;32.78;101523.94;5052880;28;20453;-73
2022/03/15 10:14:46;;;;;;;25.63;12.95;;;;;;;20.20;32.75;101529.88;5035964;28;20430;-75
2022/03/15 10:17:16;;;;;;;21.13;12.73;;;;;;;20.15;32.43;101532.75;5053201;28;20054;-77
2022/03/15 10:19:55;;;;;;;21.73;12.98;;;;;;;20.18;32.37;101517.22;5040819;28;20112;-75
2022/03/15 10:22:25;;;;;;;23.77;14.05;;;;;;;19.94;32.60;101525.50;4999095;28;20080;-76
2022/03/15 10:24:51;;;;;;;22.77;13.40;;;;;;;19.74;32.70;101527.19;5016023;28;20129;-76
2022/03/15 10:27:17;;;;;;;60.05;17.90;;;;;;;19.81;32.75;101517.25;5032739;28;20445;-75
2022/03/15 10:29:47;;;;;;;29.08;12.40;;;;;;;19.69;32.90;101489.56;4998660;28;20095;-74
2022/03/15 10:32:14;;;;;;;25.95;13.65;;;;;;;19.79;32.79;101511.19;5033539;28;20096;-74
2022/03/15 10:35:04;;;;;;;21.75;12.73;;;;;;;19.81;32.76;101508.59;5015588;28;20079;-76
2022/03/15 10:37:35;;;;;;;19.33;12.00;;;;;;;19.90;32.89;101496.81;5033361;28;20033;-76
2022/03/15 10:40:02;;;;;;;;;;;;;;;19.97;33.40;101493.47;5033556;28;20390;-75
2022/03/15 10:42:30;;;;;;;16.92;12.20;;;;;;;20.13;32.95;101491.94;5050213;28;19908;-74
2022/03/15 10:44:59;;;;;;;19.88;10.77;;;;;;;20.33;32.55;101488.13;5053275;28;20024;-74
2022/03/15 10:47:25;;;;;;;20.35;11.82;;;;;;;20.46;31.87;101479.81;5052768;28;20029;-73
2022/03/15 10:49:51;;;;;;;23.67;11.50;;;;;;;20.33;32.69;101479.47;5051950;28;20056;-73
2022/03/15 10:52:36;;;;;;;25.20;12.55;;;;;;;20.29;33.17;101476.78;5033734;28;20511;-74
2022/03/15 10:55:09;;;;;;;19.50;10.80;;;;;;;20.41;32.99;101466.09;5034541;28;20040;-81
2022/03/15 10:57:53;;;;;;;26.40;10.90;;;;;;;20.51;31.31;101476.13;5024457;28;20485;-82
2022/03/15 11:00:23;;;;;;;22.45;12.25;;;;;;;20.38;31.91;101465.00;5050824;28;20466;-81
2022/03/15 11:02:53;;;;;;;20.48;11.27;;;;;;;20.47;32.48;101470.59;5036713;28;20457;-84
2022/03/15 11:05:29;;;;;;;17.90;10.45;;;;;;;20.46;32.81;101468.22;5034431;28;20120;-78
2022/03/15 11:07:55;;;;;;;15.32;10.77;;;;;;;20.37;32.39;101466.34;5054988;28;20393;-81
2022/03/15 11:10:20;;;;;;;17.95;10.68;;;;;;;20.18;31.60;101459.38;5053255;28;20132;-78
2022/03/15 11:13:15;;;;;;;20.92;10.82;;;;;;;20.10;33.45;101461.97;5035365;28;20022;-77
2022/03/15 11:15:49;;;;;;;24.63;11.48;;;;;;;19.94;31.75;101459.75;5038428;28;20024;-76
2022/03/15 11:18:17;;;;;;;20.55;10.65;;;;;;;19.68;31.70;101454.09;5037387;28;20044;-78
2022/03/15 11:20:50;;;;;;;23.08;10.30;;;;;;;19.46;32.79;101448.13;5035878;28;20037;-79